Time;durP1;ratioP1;P1;durP2;ratioP2;P2;SDS_P1;SDS_P2;PMS_P1;PMS_P2;Temp;Humidity;BMP_temperature;BMP_pressure;BME280_temperature;BME280_humidity;BME280_pressure;Samples;Min_cycle;Max_cycle;Signal;HPM_P1;HPM_P2
2022/01/11 00:01:42;;;;;;;89.97;35.72;;;2.00;90.90;;;;;;4879739;29;20032;-72
2022/01/11 00:04:12;;;;;;;92.25;39.92;;;2.00;90.90;;;;;;4883775;29;20678;-72
2022/01/11 00:06:45;;;;;;;94.25;39.85;;;1.80;90.70;;;;;;4882605;29;20037;-72
2022/01/11 00:09:33;;;;;;;91.53;39.63;;;1.90;91.10;;;;;;4882447;29;20493;-72
2022/01/11 00:11:59;;;;;;;107.25;41.08;;;2.00;90.80;;;;;;4886334;29;20032;-72
2022/01/11 00:14:25;;;;;;;99.15;39.20;;;2.00;90.50;;;;;;4887851;29;20417;-72
2022/01/11 00:16:51;;;;;;;96.28;38.60;;;2.10;90.60;;;;;;4901589;29;20066;-73
2022/01/11 00:19:17;;;;;;;93.40;38.05;;;2.00;90.10;;;;;;4887225;29;20040;-72
2022/01/11 00:21:48;;;;;;;89.30;37.70;;;2.00;90.40;;;;;;4884989;29;20044;-72
2022/01/11 00:24:30;;;;;;;94.72;38.92;;;1.90;90.60;;;;;;4887562;29;20469;-72
2022/01/11 00:27:08;;;;;;;92.35;37.92;;;1.90;90.60;;;;;;4886291;29;20053;-72
2022/01/11 00:29:36;;;;;;;83.97;36.60;;;1.90;90.70;;;;;;4901246;29;20136;-72
2022/01/11 00:32:12;;;;;;;103.65;40.88;;;1.90;90.60;;;;;;4882798;29;20083;-72
2022/01/11 00:34:50;;;;;;;100.18;40.33;;;1.90;90.70;;;;;;4882833;29;20043;-72
2022/01/11 00:37:18;;;;;;;91.63;38.60;;;1.80;90.60;;;;;;4900765;29;20045;-72
2022/01/11 00:39:49;;;;;;;95.30;38.58;;;1.70;90.60;;;;;;4884521;29;20556;-72
2022/01/11 00:42:17;;;;;;;94.18;39.13;;;1.60;90.90;;;;;;4878017;29;20041;-74
2022/01/11 00:44:43;;;;;;;83.20;36.38;;;1.60;91.10;;;;;;4885312;29;20056;-73
2022/01/11 00:47:10;;;;;;;98.05;42.15;;;1.60;91.10;;;;;;4872375;29;20088;-72
2022/01/11 00:49:38;;;;;;;93.43;39.20;;;1.40;91.00;;;;;;4890044;29;20135;-73
2022/01/11 00:52:04;;;;;;;97.35;39.63;;;1.40;91.30;;;;;;4882865;29;20037;-72
2022/01/11 00:54:30;;;;;;;90.85;39.25;;;1.40;91.20;;;;;;4885217;29;20047;-72
2022/01/11 00:56:56;;;;;;;92.32;38.35;;;1.40;91.10;;;;;;4883831;29;20683;-72
2022/01/11 00:59:21;;;;;;;96.82;42.28;;;1.40;91.10;;;;;;4896305;29;20036;-72
2022/01/11 01:01:47;;;;;;;102.20;41.83;;;1.40;91.10;;;;;;4879824;29;20077;-72
2022/01/11 01:04:13;;;;;;;96.45;39.80;;;1.40;91.10;;;;;;4887212;29;20028;-72
2022/01/11 01:06:39;;;;;;;101.47;41.65;;;1.30;91.10;;;;;;4883255;29;20056;-72
2022/01/11 01:09:07;;;;;;;100.10;39.92;;;1.30;91.10;;;;;;4894180;29;20048;-72
2022/01/11 01:11:37;;;;;;;98.15;40.72;;;1.30;91.00;;;;;;4885863;29;20049;-72
2022/01/11 01:14:03;;;;;;;99.80;39.88;;;1.30;91.20;;;;;;4902393;29;20886;-72
2022/01/11 01:16:28;;;;;;;100.85;39.92;;;1.30;91.50;;;;;;4906309;29;20048;-72
2022/01/11 01:19:09;;;;;;;93.25;39.92;;;1.40;91.40;;;;;;4901952;29;20033;-72
2022/01/11 01:21:38;;;;;;;112.10;43.15;;;1.40;91.10;;;;;;4887875;29;20039;-73
2022/01/11 01:24:07;;;;;;;100.72;42.08;;;1.40;91.20;;;;;;4886197;29;20035;-72
2022/01/11 01:26:33;;;;;;;113.35;45.97;;;1.30;90.80;;;;;;4885727;29;20871;-72
2022/01/11 01:29:00;;;;;;;109.68;45.10;;;1.20;90.70;;;;;;4901323;29;20130;-72
2022/01/11 01:31:27;;;;;;;108.40;44.22;;;1.10;90.70;;;;;;4900599;29;20032;-72
2022/01/11 01:33:54;;;;;;;113.15;44.20;;;1.00;91.10;;;;;;4901429;29;20046;-72
2022/01/11 01:36:19;;;;;;;116.75;44.35;;;0.90;91.60;;;;;;4885406;29;20044;-72
2022/01/11 01:38:45;;;;;;;118.47;45.90;;;1.00;91.40;;;;;;4879206;29;20040;-72
2022/01/11 01:41:19;;;;;;;114.88;46.22;;;0.80;91.40;;;;;;4903462;29;20036;-72
2022/01/11 01:43:48;;;;;;;117.18;45.53;;;0.90;91.80;;;;;;4873632;29;20032;-72
2022/01/11 01:46:15;;;;;;;116.40;44.72;;;0.70;91.70;;;;;;4883807;29;20047;-72
2022/01/11 01:48:41;;;;;;;115.78;44.25;;;0.60;92.00;;;;;;4897933;29;20033;-72
2022/01/11 01:51:08;;;;;;;112.00;44.33;;;0.40;92.40;;;;;;4883101;29;20072;-73
2022/01/11 01:53:38;;;;;;;107.18;42.95;;;0.40;92.80;;;;;;4897820;29;20103;-72
2022/01/11 01:56:06;;;;;;;110.63;43.90;;;0.60;92.70;;;;;;4900242;29;20059;-72
2022/01/11 01:58:31;;;;;;;117.68;47.20;;;0.60;92.30;;;;;;4885387;29;20037;-71
2022/01/11 02:01:02;;;;;;;116.68;45.35;;;0.70;92.10;;;;;;4899895;29;20044;-72
2022/01/11 02:03:31;;;;;;;116.25;44.70;;;0.70;92.00;;;;;;4900775;29;20040;-71
2022/01/11 02:05:58;;;;;;;120.25;46.58;;;0.40;92.30;;;;;;4881795;29;20693;-71
2022/01/11 02:08:25;;;;;;;116.05;46.45;;;0.40;92.50;;;;;;4900187;29;20060;-71
2022/01/11 02:10:52;;;;;;;113.72;45.85;;;0.30;92.80;;;;;;4884401;29;20036;-72
2022/01/11 02:13:18;;;;;;;123.60;47.65;;;0.30;92.90;;;;;;4883107;29;20063;-71
2022/01/11 02:15:45;;;;;;;113.93;46.30;;;0.50;92.60;;;;;;4897693;29;20112;-72
2022/01/11 02:18:14;;;;;;;127.68;46.35;;;0.30;92.50;;;;;;4884236;29;20032;-72
2022/01/11 02:20:46;;;;;;;128.40;46.65;;;0.20;93.20;;;;;;4881365;29;20081;-72
2022/01/11 02:23:18;;;;;;;125.30;45.47;;;0.10;93.10;;;;;;4898112;29;20091;-72
2022/01/11 02:25:45;;;;;;;125.57;48.55;;;0.10;93.80;;;;;;4901112;29;20522;-70
2022/01/11 02:28:13;;;;;;;131.63;48.58;;;0.40;93.20;;;;;;4903694;29;20059;-71
2022/01/11 02:30:41;;;;;;;127.00;45.92;;;0.50;92.80;;;;;;4895070;29;20041;-72
2022/01/11 02:33:17;;;;;;;137.63;51.00;;;0.50;92.60;;;;;;4892891;29;20055;-71
2022/01/11 02:35:50;;;;;;;145.20;51.08;;;0.70;92.50;;;;;;4903392;29;20037;-71
2022/01/11 02:38:17;;;;;;;139.23;50.53;;;0.60;91.80;;;;;;4887643;29;20051;-72
2022/01/11 02:40:43;;;;;;;135.30;48.13;;;0.60;92.20;;;;;;4906818;29;20039;-72
2022/01/11 02:43:09;;;;;;;134.48;51.10;;;0.50;91.90;;;;;;4903634;29;20293;-72
2022/01/11 02:45:35;;;;;;;131.48;46.92;;;0.60;91.90;;;;;;4888210;29;20051;-72
2022/01/11 02:48:01;;;;;;;127.10;46.67;;;0.60;92.00;;;;;;4903427;29;20032;-71
2022/01/11 02:50:27;;;;;;;131.80;48.53;;;0.50;92.00;;;;;;4888542;29;20044;-72
2022/01/11 02:52:53;;;;;;;136.40;47.97;;;0.60;91.60;;;;;;4902011;29;20048;-72
2022/01/11 02:55:19;;;;;;;131.80;48.42;;;0.60;92.00;;;;;;4887849;29;20472;-72
2022/01/11 02:57:47;;;;;;;124.05;47.42;;;0.60;91.80;;;;;;4899599;29;20037;-72
2022/01/11 03:00:20;;;;;;;117.05;45.08;;;0.70;91.70;;;;;;4901288;29;20055;-72
2022/01/11 03:02:46;;;;;;;134.85;47.30;;;0.70;91.50;;;;;;4900720;29;20049;-71
2022/01/11 03:05:17;;;;;;;125.25;46.72;;;0.70;91.60;;;;;;4889397;29;20032;-72
2022/01/11 03:07:43;;;;;;;124.80;45.60;;;0.70;91.60;;;;;;4902903;29;20052;-72
2022/01/11 03:10:34;;;;;;;133.60;46.13;;;0.70;91.30;;;;;;4885724;29;20028;-72
2022/01/11 03:13:03;;;;;;;121.32;41.55;;;0.80;91.40;;;;;;4885773;29;20039;-71
2022/01/11 03:15:29;;;;;;;128.95;46.63;;;0.80;91.50;;;;;;4904519;29;20040;-72
2022/01/11 03:17:59;;;;;;;125.20;45.47;;;0.90;91.20;;;;;;4895747;29;20571;-71
2022/01/11 03:20:26;;;;;;;133.88;47.58;;;0.90;91.30;;;;;;4888128;29;20037;-72
2022/01/11 03:22:53;;;;;;;146.82;49.17;;;0.90;91.30;;;;;;4900742;29;20035;-71
2022/01/11 03:25:19;;;;;;;127.05;46.17;;;1.10;91.20;;;;;;4888140;29;20402;-72
2022/01/11 03:27:45;;;;;;;123.90;43.47;;;1.10;91.20;;;;;;4903465;29;20031;-72
2022/01/11 03:30:15;;;;;;;131.27;46.83;;;1.10;91.00;;;;;;4903572;29;20044;-71
2022/01/11 03:32:45;;;;;;;118.85;44.17;;;1.20;91.10;;;;;;4887307;29;20033;-72
2022/01/11 03:35:16;;;;;;;133.80;44.80;;;1.20;91.10;;;;;;4902632;29;20489;-72
2022/01/11 03:37:44;;;;;;;135.90;46.95;;;1.20;91.20;;;;;;4881365;29;20580;-72
2022/01/11 03:40:13;;;;;;;125.10;44.38;;;1.30;90.50;;;;;;4902746;29;20068;-72
2022/01/11 03:42:39;;;;;;;125.10;46.00;;;1.30;90.30;;;;;;4903868;29;20075;-72
2022/01/11 03:45:08;;;;;;;133.50;44.45;;;1.30;90.20;;;;;;4899597;29;20049;-71
2022/01/11 03:47:35;;;;;;;125.85;46.67;;;1.30;89.70;;;;;;4891627;29;20077;-72
2022/01/11 03:50:02;;;;;;;117.70;42.35;;;1.20;89.60;;;;;;4886969;29;20092;-72
2022/01/11 03:52:28;;;;;;;129.15;45.28;;;1.10;90.10;;;;;;4888718;29;20465;-72
2022/01/11 03:57:22;;;;;;;121.80;46.25;;;1.00;90.60;;;;;;4891061;29;20128;-72
2022/01/11 03:59:48;;;;;;;125.40;43.67;;;0.90;90.40;;;;;;4902690;29;20819;-72
2022/01/11 04:02:14;;;;;;;131.95;44.00;;;1.00;90.60;;;;;;4886854;29;20048;-72
2022/01/11 04:04:40;;;;;;;118.65;41.90;;;0.90;90.70;;;;;;4889559;29;20055;-71
2022/01/11 04:07:07;;;;;;;116.45;40.78;;;0.90;90.60;;;;;;4904261;29;20032;-71
2022/01/11 04:09:32;;;;;;;121.00;44.25;;;0.90;90.80;;;;;;4887001;29;20128;-71
2022/01/11 04:11:59;;;;;;;121.22;43.13;;;0.90;90.80;;;;;;4902178;29;20040;-72
2022/01/11 04:14:26;;;;;;;116.78;37.90;;;0.80;90.30;;;;;;4886687;29;20501;-72
2022/01/11 04:16:53;;;;;;;121.20;41.80;;;0.80;90.80;;;;;;4901701;29;20047;-71
2022/01/11 04:19:20;;;;;;;117.47;40.15;;;0.80;90.80;;;;;;4885558;29;20060;-72
2022/01/11 04:21:47;;;;;;;117.55;40.00;;;0.80;90.70;;;;;;4898343;29;20910;-72
2022/01/11 04:24:13;;;;;;;130.32;41.38;;;0.70;90.60;;;;;;4886389;29;20060;-72
2022/01/11 04:26:40;;;;;;;123.47;42.17;;;0.80;90.90;;;;;;4886964;29;20033;-72
2022/01/11 04:29:06;;;;;;;130.77;44.60;;;0.80;90.60;;;;;;4887734;29;20040;-72
2022/01/11 04:31:32;;;;;;;122.05;41.22;;;0.90;90.60;;;;;;4903504;29;20044;-72
2022/01/11 04:33:58;;;;;;;132.13;41.83;;;0.70;90.80;;;;;;4886158;29;20120;-72
2022/01/11 04:36:24;;;;;;;111.22;38.60;;;0.70;91.10;;;;;;4898125;29;20063;-72
2022/01/11 04:38:50;;;;;;;128.55;41.40;;;0.70;91.00;;;;;;4902968;29;20163;-72
2022/01/11 04:41:16;;;;;;;125.45;40.97;;;0.80;90.80;;;;;;4901700;29;20029;-72
2022/01/11 04:43:46;;;;;;;127.85;40.75;;;0.80;90.90;;;;;;4898279;29;20052;-72
2022/01/11 04:46:12;;;;;;;119.60;41.08;;;0.90;91.00;;;;;;4900678;29;20036;-72
2022/01/11 04:48:38;;;;;;;115.20;38.28;;;1.00;90.40;;;;;;4904084;29;20093;-72
2022/01/11 04:51:05;;;;;;;110.82;38.10;;;0.90;90.20;;;;;;4885000;29;20032;-71
2022/01/11 04:53:31;;;;;;;112.70;38.08;;;0.70;90.50;;;;;;4886546;29;20036;-72
2022/01/11 04:55:57;;;;;;;123.15;37.80;;;0.70;90.50;;;;;;4891351;29;20033;-72
2022/01/11 04:58:24;;;;;;;116.68;37.85;;;0.80;90.60;;;;;;4881715;29;20037;-72
2022/01/11 05:00:50;;;;;;;117.65;34.95;;;0.60;90.40;;;;;;4886592;29;20117;-72
2022/01/11 05:03:18;;;;;;;112.97;38.50;;;0.50;90.50;;;;;;4902622;29;20441;-71
2022/01/11 05:05:47;;;;;;;107.43;35.42;;;0.30;91.10;;;;;;4900494;29;20553;-72
2022/01/11 05:08:14;;;;;;;106.60;35.15;;;0.40;91.00;;;;;;4886503;29;20035;-72
2022/01/11 05:10:42;;;;;;;117.57;36.90;;;0.40;91.00;;;;;;4895501;29;20123;-73
2022/01/11 05:13:14;;;;;;;106.88;36.85;;;0.40;91.20;;;;;;4898361;29;20044;-72
2022/01/11 05:15:41;;;;;;;118.60;38.22;;;0.50;91.00;;;;;;4896499;29;20052;-72
2022/01/11 05:18:07;;;;;;;102.32;37.08;;;0.30;91.10;;;;;;4888163;29;20110;-73
2022/01/11 05:20:35;;;;;;;122.57;37.22;;;0.30;91.40;;;;;;4886998;29;20059;-72
2022/01/11 05:23:01;;;;;;;119.35;37.15;;;0.30;91.70;;;;;;4894501;29;20036;-73
2022/01/11 05:25:27;;;;;;;110.15;35.03;;;0.20;91.30;;;;;;4887778;29;20564;-72
2022/01/11 05:27:53;;;;;;;121.55;36.95;;;0.20;91.90;;;;;;4887468;29;20033;-73
2022/01/11 05:30:19;;;;;;;113.55;34.40;;;0.20;91.80;;;;;;4896268;29;20041;-72
2022/01/11 05:32:48;;;;;;;98.25;32.53;;;0.30;91.70;;;;;;4900150;29;20043;-74
2022/01/11 05:35:15;;;;;;;115.95;34.65;;;0.40;91.40;;;;;;4898364;29;20078;-73
2022/01/11 05:37:42;;;;;;;112.57;35.90;;;0.40;91.30;;;;;;4881705;29;20028;-73
2022/01/11 05:40:10;;;;;;;112.18;34.10;;;0.40;91.20;;;;;;4884122;29;20497;-73
2022/01/11 05:42:36;;;;;;;119.82;33.70;;;0.40;91.40;;;;;;4901408;29;20037;-73
2022/01/11 05:45:04;;;;;;;122.15;35.50;;;0.50;91.30;;;;;;4881714;29;20883;-73
2022/01/11 05:47:32;;;;;;;101.88;31.58;;;0.50;90.90;;;;;;4900524;29;20067;-73
2022/01/11 05:49:59;;;;;;;99.22;31.27;;;0.60;91.10;;;;;;4899161;29;20059;-72
2022/01/11 05:52:26;;;;;;;97.05;29.42;;;0.70;91.00;;;;;;4901409;29;20041;-72
2022/01/11 05:54:52;;;;;;;84.72;28.33;;;0.50;90.70;;;;;;4901308;29;20083;-72
2022/01/11 05:57:18;;;;;;;89.63;29.30;;;0.50;91.10;;;;;;4884918;29;20097;-73
2022/01/11 05:59:44;;;;;;;94.82;30.13;;;0.60;91.10;;;;;;4881013;29;20029;-73
2022/01/11 06:02:10;;;;;;;109.38;29.35;;;0.40;91.30;;;;;;4905485;29;20119;-73
2022/01/11 06:04:36;;;;;;;102.97;30.15;;;0.60;91.60;;;;;;4885936;29;20124;-72
2022/01/11 06:07:02;;;;;;;98.88;29.98;;;0.70;91.60;;;;;;4886228;29;20036;-72
2022/01/11 06:09:28;;;;;;;96.32;31.27;;;0.80;91.20;;;;;;4887066;29;20036;-72
2022/01/11 06:11:56;;;;;;;87.05;28.58;;;0.80;90.80;;;;;;4896323;29;20024;-73
2022/01/11 06:14:23;;;;;;;88.85;29.52;;;0.80;90.60;;;;;;4886471;29;20039;-72
2022/01/11 06:16:51;;;;;;;95.93;29.17;;;0.70;90.80;;;;;;4905540;29;20032;-73
2022/01/11 06:19:16;;;;;;;84.30;27.88;;;0.60;91.00;;;;;;4903550;29;20409;-72
2022/01/11 06:22:02;;;;;;;109.32;30.80;;;0.70;91.40;;;;;;4885928;29;20051;-73
2022/01/11 06:24:28;;;;;;;87.25;29.27;;;0.60;90.90;;;;;;4902026;29;20501;-72
2022/01/11 06:26:55;;;;;;;84.95;28.10;;;0.70;91.20;;;;;;4903365;29;20502;-73
2022/01/11 06:29:20;;;;;;;97.05;27.90;;;0.80;90.90;;;;;;4900868;29;20046;-72
2022/01/11 06:31:46;;;;;;;97.03;28.80;;;0.80;91.00;;;;;;4902357;29;20264;-72
2022/01/11 06:34:12;;;;;;;93.82;28.17;;;0.80;91.20;;;;;;4904148;29;20048;-73
2022/01/11 06:36:38;;;;;;;87.00;25.83;;;0.90;91.20;;;;;;4900264;29;20037;-73
2022/01/11 06:39:04;;;;;;;82.85;28.17;;;0.90;90.80;;;;;;4901682;29;20040;-72
2022/01/11 06:41:35;;;;;;;84.65;26.55;;;0.90;90.80;;;;;;4884981;29;20032;-73
2022/01/11 06:44:03;;;;;;;80.75;26.50;;;0.90;90.70;;;;;;4904404;29;20037;-72
2022/01/11 06:46:29;;;;;;;92.95;27.33;;;0.90;90.80;;;;;;4905345;29;20037;-72
2022/01/11 06:48:59;;;;;;;91.35;27.50;;;1.00;91.00;;;;;;4884417;29;20041;-72
2022/01/11 06:51:25;;;;;;;82.50;27.38;;;1.00;90.80;;;;;;4885218;29;20043;-72
2022/01/11 06:53:51;;;;;;;88.03;27.42;;;1.00;90.90;;;;;;4900260;29;20100;-71
2022/01/11 06:56:17;;;;;;;87.00;26.33;;;0.90;91.00;;;;;;4886453;29;20040;-72
2022/01/11 06:58:46;;;;;;;84.72;24.98;;;0.90;91.20;;;;;;4906235;29;20037;-73
2022/01/11 07:01:13;;;;;;;78.25;24.10;;;0.90;90.60;;;;;;4902379;29;20111;-72
2022/01/11 07:03:39;;;;;;;83.22;26.20;;;0.80;91.00;;;;;;4885633;29;20035;-72
2022/01/11 07:06:34;;;;;;;92.82;27.88;;;0.80;91.10;;;;;;4881751;29;20941;-72
2022/01/11 07:09:02;;;;;;;87.85;25.33;;;0.80;91.20;;;;;;4900685;29;20552;-71
2022/01/11 07:11:31;;;;;;;85.55;27.55;;;0.80;91.10;;;;;;4886611;29;20044;-72
2022/01/11 07:14:03;;;;;;;82.47;27.20;;;0.80;91.00;;;;;;4903686;29;20033;-72
2022/01/11 07:16:29;;;;;;;80.63;26.42;;;0.80;91.10;;;;;;4894024;29;20117;-72
2022/01/11 07:18:55;;;;;;;74.68;24.60;;;0.80;91.40;;;;;;4891233;29;20039;-72
2022/01/11 07:21:21;;;;;;;87.97;25.10;;;0.90;90.90;;;;;;4911158;29;20020;-72
2022/01/11 07:23:48;;;;;;;77.57;24.40;;;0.90;90.70;;;;;;4893537;29;20035;-72
2022/01/11 07:26:14;;;;;;;87.60;27.02;;;0.90;91.10;;;;;;4894775;29;20032;-72
2022/01/11 07:28:41;;;;;;;75.65;25.80;;;1.00;91.30;;;;;;4891422;29;20028;-73
2022/01/11 07:31:11;;;;;;;75.32;26.10;;;1.00;91.10;;;;;;4895164;29;20067;-72
2022/01/11 07:33:44;;;;;;;71.13;24.88;;;1.10;91.20;;;;;;4902224;29;20039;-72
2022/01/11 07:36:10;;;;;;;73.45;25.88;;;1.10;91.10;;;;;;4886722;29;20103;-72
2022/01/11 07:38:37;;;;;;;65.95;22.75;;;1.20;91.10;;;;;;4905201;29;20409;-71
2022/01/11 07:41:09;;;;;;;77.22;24.83;;;1.20;90.70;;;;;;4886523;29;20056;-72
2022/01/11 07:44:01;;;;;;;68.30;23.17;;;1.30;90.60;;;;;;4877152;29;20119;-73
2022/01/11 07:46:33;;;;;;;66.43;23.75;;;1.20;90.20;;;;;;4885153;29;20033;-72
2022/01/11 07:49:02;;;;;;;78.30;24.63;;;1.30;90.60;;;;;;4905491;29;20036;-72
2022/01/11 07:51:29;;;;;;;69.97;23.08;;;1.30;90.70;;;;;;4899778;29;20143;-73
2022/01/11 07:53:58;;;;;;;62.97;21.92;;;1.40;90.30;;;;;;4893347;29;20033;-74
2022/01/11 07:56:24;;;;;;;64.63;21.85;;;1.30;89.90;;;;;;4888762;29;20044;-71
2022/01/11 07:58:50;;;;;;;67.25;22.02;;;1.30;89.60;;;;;;4886767;29;20049;-71
2022/01/11 08:01:19;;;;;;;63.38;22.88;;;1.30;89.70;;;;;;4886091;29;20043;-72
2022/01/11 08:03:48;;;;;;;69.35;22.60;;;1.20;90.10;;;;;;4905124;29;20034;-72
2022/01/11 08:06:19;;;;;;;69.93;21.73;;;1.30;90.10;;;;;;4909366;29;20029;-72
2022/01/11 08:08:48;;;;;;;57.53;21.10;;;1.20;90.10;;;;;;4901790;29;20107;-72
2022/01/11 08:11:16;;;;;;;64.50;22.95;;;1.10;90.20;;;;;;4905784;29;20048;-72
2022/01/11 08:13:42;;;;;;;68.63;22.08;;;1.10;90.10;;;;;;4888759;29;20033;-74
2022/01/11 08:16:08;;;;;;;60.10;20.85;;;1.10;90.20;;;;;;4908489;29;20036;-74
2022/01/11 08:18:34;;;;;;;52.47;20.88;;;1.20;90.40;;;;;;4888181;29;20034;-74
2022/01/11 08:21:01;;;;;;;58.78;21.48;;;1.20;90.60;;;;;;4899968;29;20039;-74
2022/01/11 08:23:27;;;;;;;64.82;21.98;;;1.30;90.40;;;;;;4895739;29;20033;-71
2022/01/11 08:25:53;;;;;;;74.43;25.85;;;1.20;89.70;;;;;;4903119;29;20771;-73
2022/01/11 08:28:19;;;;;;;53.08;21.02;;;1.30;90.10;;;;;;4887751;29;20043;-73
2022/01/11 08:30:53;;;;;;;59.67;20.77;;;1.30;90.30;;;;;;4888547;29;20042;-70
2022/01/11 08:33:19;;;;;;;56.00;20.88;;;1.40;90.40;;;;;;4900056;29;20048;-73
2022/01/11 08:35:45;;;;;;;60.90;22.10;;;1.40;90.00;;;;;;4887428;29;20627;-70
2022/01/11 08:38:14;;;;;;;55.95;22.15;;;1.40;90.00;;;;;;4904033;29;20036;-70
2022/01/11 08:40:42;;;;;;;57.17;19.88;;;1.50;89.60;;;;;;4887739;29;20044;-69
2022/01/11 08:43:08;;;;;;;60.05;20.80;;;1.50;89.90;;;;;;4894570;29;20415;-68
2022/01/11 08:45:37;;;;;;;60.50;21.52;;;1.50;90.30;;;;;;4901583;29;20036;-70
2022/01/11 08:48:07;;;;;;;48.67;18.58;;;1.60;88.40;;;;;;4886304;29;20422;-69
2022/01/11 08:50:38;;;;;;;52.25;19.13;;;1.60;88.10;;;;;;4900789;29;20028;-70
2022/01/11 08:53:04;;;;;;;49.55;18.70;;;1.60;89.20;;;;;;4888181;29;20063;-71
2022/01/11 08:55:30;;;;;;;54.42;19.17;;;1.60;89.60;;;;;;4898971;29;20141;-72
2022/01/11 08:57:56;;;;;;;50.72;18.92;;;1.70;89.70;;;;;;4900737;29;20047;-64
2022/01/11 09:00:24;;;;;;;45.63;18.05;;;1.70;88.40;;;;;;4888923;29;20556;-70
2022/01/11 09:02:56;;;;;;;50.20;17.95;;;1.70;87.50;;;;;;4904011;29;20712;-71
2022/01/11 09:05:24;;;;;;;51.40;19.08;;;1.60;88.40;;;;;;4884958;29;20036;-69
2022/01/11 09:07:56;;;;;;;40.92;16.40;;;1.70;88.10;;;;;;4872662;29;20789;-72
2022/01/11 09:10:22;;;;;;;42.95;15.75;;;1.60;88.40;;;;;;4890825;29;20040;-68
2022/01/11 09:12:48;;;;;;;45.85;16.48;;;1.70;88.30;;;;;;4896479;29;20068;-70
2022/01/11 09:15:14;;;;;;;43.60;16.85;;;1.70;88.40;;;;;;4899663;29;20036;-70
2022/01/11 09:17:42;;;;;;;40.33;15.95;;;1.70;88.40;;;;;;4899696;29;20033;-70
2022/01/11 09:20:10;;;;;;;43.55;17.00;;;1.80;88.00;;;;;;4887901;29;20059;-71
2022/01/11 09:22:37;;;;;;;38.55;14.10;;;1.90;87.80;;;;;;4902559;29;20416;-70
2022/01/11 09:25:05;;;;;;;35.33;14.90;;;1.90;87.70;;;;;;4898069;29;20040;-69
2022/01/11 09:27:38;;;;;;;33.97;13.18;;;1.90;87.30;;;;;;4886495;29;20021;-71
2022/01/11 09:30:08;;;;;;;39.47;15.65;;;2.00;87.40;;;;;;4901816;29;20032;-69
2022/01/11 09:32:37;;;;;;;38.58;15.68;;;2.00;87.20;;;;;;4902285;29;20036;-69
2022/01/11 09:35:06;;;;;;;46.03;17.20;;;2.10;87.20;;;;;;4887052;29;20516;-70
2022/01/11 09:37:33;;;;;;;44.45;17.63;;;2.10;87.80;;;;;;4900408;29;20123;-70
2022/01/11 09:39:59;;;;;;;51.35;17.75;;;2.20;87.90;;;;;;4903857;29;20051;-69
2022/01/11 09:42:27;;;;;;;45.47;16.63;;;2.20;86.30;;;;;;4889822;29;20035;-71
2022/01/11 09:44:54;;;;;;;46.50;18.58;;;2.20;86.50;;;;;;4888527;29;20119;-72
2022/01/11 09:47:21;;;;;;;49.75;19.17;;;2.20;86.40;;;;;;4886273;29;20035;-66
2022/01/11 09:49:49;;;;;;;48.58;18.98;;;2.20;85.70;;;;;;4895722;29;20039;-71
2022/01/11 09:52:15;;;;;;;46.40;17.55;;;2.10;85.90;;;;;;4904712;29;21019;-69
2022/01/11 09:54:45;;;;;;;50.95;19.30;;;2.10;84.90;;;;;;4899213;29;20032;-72
2022/01/11 09:57:12;;;;;;;37.63;15.35;;;2.00;86.20;;;;;;4885091;29;20143;-70
2022/01/11 09:59:39;;;;;;;44.83;16.38;;;1.90;86.90;;;;;;4900718;29;20044;-70
2022/01/11 10:02:23;;;;;;;44.03;18.20;;;1.90;87.50;;;;;;4891560;29;20051;-71
2022/01/11 10:05:01;;;;;;;45.40;17.85;;;1.90;86.40;;;;;;4901201;29;20032;-70
2022/01/11 10:07:45;;;;;;;45.30;16.45;;;1.90;85.90;;;;;;4888088;29;20052;-72
2022/01/11 10:10:21;;;;;;;41.83;17.13;;;1.80;87.30;;;;;;4883355;29;20029;-73
2022/01/11 10:12:51;;;;;;;48.00;17.70;;;1.80;86.10;;;;;;4904634;29;20043;-72
2022/01/11 10:15:36;;;;;;;37.90;17.23;;;1.60;86.30;;;;;;4901497;29;20041;-72
2022/01/11 10:18:30;;;;;;;42.08;16.88;;;1.60;87.30;;;;;;4899361;29;20048;-71
2022/01/11 10:20:57;;;;;;;46.30;18.10;;;1.60;87.60;;;;;;4884666;29;20208;-71
2022/01/11 10:23:33;;;;;;;45.50;16.65;;;1.60;87.50;;;;;;4884736;29;20029;-73
2022/01/11 10:25:59;;;;;;;47.53;17.88;;;1.60;87.70;;;;;;4901717;29;20671;-73
2022/01/11 10:28:36;;;;;;;38.28;14.25;;;1.60;87.10;;;;;;4882808;29;20789;-74
2022/01/11 10:31:03;;;;;;;36.58;15.75;;;1.60;87.40;;;;;;4880913;29;20029;-72
2022/01/11 10:33:32;;;;;;;37.10;16.70;;;1.70;88.70;;;;;;4890832;29;20063;-68
2022/01/11 10:35:58;;;;;;;44.38;17.15;;;1.70;87.20;;;;;;4885091;29;20120;-68
2022/01/11 10:38:37;;;;;;;42.80;16.50;;;1.70;87.00;;;;;;4899544;29;20528;-67
2022/01/11 10:41:08;;;;;;;45.63;17.38;;;1.70;86.60;;;;;;4879880;29;20036;-67
2022/01/11 10:43:43;;;;;;;39.45;15.43;;;1.70;87.40;;;;;;4884000;29;20028;-68
2022/01/11 10:46:11;;;;;;;46.65;18.98;;;1.80;87.30;;;;;;4867022;29;20172;-68
2022/01/11 10:48:38;;;;;;;47.53;19.35;;;1.80;87.40;;;;;;4900955;29;20516;-68
2022/01/11 10:51:12;;;;;;;48.03;16.95;;;1.90;86.60;;;;;;4903663;29;20033;-66
2022/01/11 10:53:38;;;;;;;46.03;16.73;;;1.90;86.30;;;;;;4888382;29;20702;-68
2022/01/11 10:56:06;;;;;;;43.53;16.83;;;1.90;87.50;;;;;;4891164;29;20039;-68
2022/01/11 10:58:37;;;;;;;41.90;16.25;;;2.00;87.20;;;;;;4889461;29;20772;-68
2022/01/11 11:01:06;;;;;;;47.05;19.63;;;2.10;85.90;;;;;;4903024;29;20709;-68
2022/01/11 11:03:34;;;;;;;50.53;18.70;;;2.10;86.30;;;;;;4870907;29;20029;-67
2022/01/11 11:06:10;;;;;;;46.08;19.35;;;2.10;85.70;;;;;;4899728;29;20029;-68
2022/01/11 11:08:41;;;;;;;47.60;18.80;;;2.20;86.10;;;;;;4901126;29;20482;-67
2022/01/11 11:11:18;;;;;;;47.05;18.40;;;2.10;86.30;;;;;;4892395;29;20072;-68
2022/01/11 11:13:52;;;;;;;47.50;18.73;;;2.20;86.40;;;;;;4905562;29;20036;-68
2022/01/11 11:16:22;;;;;;;47.78;18.73;;;2.20;85.50;;;;;;4891196;29;20028;-68
2022/01/11 11:18:59;;;;;;;49.05;20.23;;;2.20;85.60;;;;;;4905914;29;20037;-70
2022/01/11 11:21:38;;;;;;;43.53;17.95;;;2.20;86.00;;;;;;4895755;29;20032;-68
2022/01/11 11:24:11;;;;;;;49.70;18.88;;;2.20;86.10;;;;;;4911069;29;20559;-68
2022/01/11 11:26:40;;;;;;;51.35;19.38;;;2.30;85.30;;;;;;4891192;29;20524;-68
2022/01/11 11:29:08;;;;;;;55.38;21.60;;;2.30;84.40;;;;;;4892684;29;20035;-68
2022/01/11 11:31:34;;;;;;;52.00;19.58;;;2.30;85.30;;;;;;4894133;29;20048;-68
2022/01/11 11:34:08;;;;;;;50.20;19.13;;;2.50;84.50;;;;;;4895882;29;20579;-68
2022/01/11 11:36:36;;;;;;;51.95;19.92;;;2.50;85.10;;;;;;4888822;29;20040;-68
2022/01/11 11:39:15;;;;;;;47.35;18.45;;;2.50;85.40;;;;;;4886516;29;20041;-68
2022/01/11 11:41:45;;;;;;;45.67;17.25;;;2.50;85.90;;;;;;4894497;29;20040;-68
2022/01/11 11:44:17;;;;;;;49.08;19.73;;;2.50;85.90;;;;;;4887309;29;20028;-68
2022/01/11 11:46:55;;;;;;;42.03;17.85;;;2.50;86.00;;;;;;4886339;29;20481;-67
2022/01/11 11:49:43;;;;;;;45.67;18.13;;;2.50;86.30;;;;;;4887155;29;20033;-68
2022/01/11 11:52:22;;;;;;;44.47;18.02;;;2.60;85.40;;;;;;4911362;29;20051;-69
2022/01/11 11:55:00;;;;;;;43.05;16.40;;;2.50;85.00;;;;;;4893401;29;20033;-72
2022/01/11 11:57:31;;;;;;;45.78;18.25;;;2.50;84.40;;;;;;4882781;29;20037;-67
2022/01/11 12:00:20;;;;;;;42.42;16.00;;;2.50;84.90;;;;;;4889620;29;20044;-68
2022/01/11 12:02:49;;;;;;;38.55;15.80;;;2.60;84.70;;;;;;4884228;29;20047;-68
2022/01/11 12:05:39;;;;;;;37.80;16.85;;;2.50;83.80;;;;;;4894347;29;20039;-68
2022/01/11 12:08:32;;;;;;;40.45;15.75;;;2.40;84.70;;;;;;4893759;29;20040;-68
2022/01/11 12:11:04;;;;;;;36.70;16.95;;;2.40;85.50;;;;;;4886215;29;20147;-68
2022/01/11 12:13:51;;;;;;;37.30;16.38;;;2.50;84.30;;;;;;4887066;29;20371;-68
2022/01/11 12:16:24;;;;;;;41.78;16.58;;;2.40;85.10;;;;;;4901179;29;20413;-69
2022/01/11 12:18:58;;;;;;;42.97;17.05;;;2.40;85.60;;;;;;4893211;29;20477;-68
2022/01/11 12:21:26;;;;;;;39.50;17.13;;;2.30;84.60;;;;;;4901765;29;20243;-68
2022/01/11 12:23:53;;;;;;;41.03;17.52;;;2.20;84.90;;;;;;4872072;29;20032;-68
2022/01/11 12:26:30;;;;;;;48.00;17.00;;;2.20;85.50;;;;;;4897424;29;20043;-68
2022/01/11 12:29:10;;;;;;;40.90;17.00;;;2.10;85.60;;;;;;4880151;29;20374;-69
2022/01/11 12:31:53;;;;;;;38.55;15.60;;;2.00;86.00;;;;;;4881543;29;20127;-67
2022/01/11 12:34:39;;;;;;;37.95;15.40;;;2.00;86.10;;;;;;4877284;29;20046;-68
2022/01/11 12:37:05;;;;;;;37.15;14.13;;;2.00;86.30;;;;;;4882182;29;20036;-68
2022/01/11 12:39:32;;;;;;;39.72;16.77;;;1.90;86.10;;;;;;4897574;29;20051;-69
2022/01/11 12:41:59;;;;;;;46.03;17.20;;;2.00;87.10;;;;;;4898097;29;20064;-69
2022/01/11 12:47:02;;;;;;;37.58;14.68;;;2.20;86.40;;;;;;4883626;29;20036;-69
2022/01/11 12:49:29;;;;;;;35.55;15.38;;;2.20;85.40;;;;;;4890448;29;20044;-69